sensor_id;sensor_type;location;lat;lon;timestamp;pressure;altitude;pressure_sealevel;temperature;humidity
65329;BME280;51941;52.210;5.158;2023-07-09T00:00:38;101628.66;;;23.54;97.22
65329;BME280;51941;52.210;5.158;2023-07-09T00:03:05;101616.81;;;23.50;96.66
65329;BME280;51941;52.210;5.158;2023-07-09T00:05:32;101621.53;;;23.44;98.48
65329;BME280;51941;52.210;5.158;2023-07-09T00:08:04;101615.41;;;23.38;98.76
65329;BME280;51941;52.210;5.158;2023-07-09T00:10:31;101623.59;;;23.33;99.20
65329;BME280;51941;52.210;5.158;2023-07-09T00:12:59;101621.47;;;23.30;98.81
65329;BME280;51941;52.210;5.158;2023-07-09T00:15:26;101623.38;;;23.30;97.56
65329;BME280;51941;52.210;5.158;2023-07-09T00:17:53;101622.69;;;23.24;98.26
65329;BME280;51941;52.210;5.158;2023-07-09T00:20:20;101627.00;;;23.25;97.49
65329;BME280;51941;52.210;5.158;2023-07-09T00:22:47;101621.59;;;23.25;97.63
65329;BME280;51941;52.210;5.158;2023-07-09T00:25:19;101632.41;;;23.25;97.63
65329;BME280;51941;52.210;5.158;2023-07-09T00:27:47;101628.38;;;23.23;98.09
65329;BME280;51941;52.210;5.158;2023-07-09T00:30:18;101632.16;;;23.22;98.68
65329;BME280;51941;52.210;5.158;2023-07-09T00:32:47;101637.94;;;23.15;99.64
65329;BME280;51941;52.210;5.158;2023-07-09T00:35:14;101638.31;;;23.09;100.00
65329;BME280;51941;52.210;5.158;2023-07-09T00:37:42;101637.09;;;23.01;100.00
65329;BME280;51941;52.210;5.158;2023-07-09T00:40:15;101635.47;;;23.00;100.00
65329;BME280;51941;52.210;5.158;2023-07-09T00:42:47;101648.47;;;22.98;100.00
65329;BME280;51941;52.210;5.158;2023-07-09T00:45:20;101647.66;;;22.97;100.00
65329;BME280;51941;52.210;5.158;2023-07-09T00:47:53;101654.16;;;22.96;100.00
65329;BME280;51941;52.210;5.158;2023-07-09T00:50:33;101652.56;;;22.95;100.00
65329;BME280;51941;52.210;5.158;2023-07-09T00:53:05;101655.53;;;22.94;100.00
65329;BME280;51941;52.210;5.158;2023-07-09T00:55:38;101651.75;;;22.95;99.57
65329;BME280;51941;52.210;5.158;2023-07-09T00:58:12;101649.03;;;22.95;99.60
65329;BME280;51941;52.210;5.158;2023-07-09T01:00:46;101652.56;;;22.95;99.32
65329;BME280;51941;52.210;5.158;2023-07-09T01:03:25;101659.28;;;22.98;99.03
65329;BME280;51941;52.210;5.158;2023-07-09T01:05:56;101650.38;;;22.97;98.54
65329;BME280;51941;52.210;5.158;2023-07-09T01:08:29;101645.78;;;22.98;98.47
65329;BME280;51941;52.210;5.158;2023-07-09T01:10:58;101642.56;;;22.96;98.71
65329;BME280;51941;52.210;5.158;2023-07-09T01:13:27;101650.38;;;22.97;98.91
65329;BME280;51941;52.210;5.158;2023-07-09T01:16:00;101647.66;;;22.97;99.11
65329;BME280;51941;52.210;5.158;2023-07-09T01:18:26;101639.34;;;22.94;99.22
65329;BME280;51941;52.210;5.158;2023-07-09T01:21:03;101651.56;;;22.91;100.00
65329;BME280;51941;52.210;5.158;2023-07-09T01:23:33;101651.59;;;22.86;100.00
65329;BME280;51941;52.210;5.158;2023-07-09T01:26:00;101654.41;;;22.81;100.00
65329;BME280;51941;52.210;5.158;2023-07-09T01:28:27;101651.75;;;22.76;100.00
65329;BME280;51941;52.210;5.158;2023-07-09T01:30:55;101648.06;;;22.72;100.00
65329;BME280;51941;52.210;5.158;2023-07-09T01:33:22;101657.28;;;22.66;100.00
65329;BME280;51941;52.210;5.158;2023-07-09T01:35:49;101654.69;;;22.61;100.00
65329;BME280;51941;52.210;5.158;2023-07-09T01:38:22;101658.75;;;22.58;100.00
65329;BME280;51941;52.210;5.158;2023-07-09T01:40:49;101645.59;;;22.57;100.00
65329;BME280;51941;52.210;5.158;2023-07-09T01:43:15;101650.75;;;22.53;100.00
65329;BME280;51941;52.210;5.158;2023-07-09T01:45:42;101657.28;;;22.47;100.00
65329;BME280;51941;52.210;5.158;2023-07-09T01:48:09;101659.19;;;22.47;100.00
65329;BME280;51941;52.210;5.158;2023-07-09T01:50:42;101657.56;;;22.46;100.00
65329;BME280;51941;52.210;5.158;2023-07-09T01:53:10;101647.19;;;22.34;100.00
65329;BME280;51941;52.210;5.158;2023-07-09T01:55:41;101661.72;;;22.38;100.00
65329;BME280;51941;52.210;5.158;2023-07-09T01:58:08;101672.00;;;22.36;100.00
65329;BME280;51941;52.210;5.158;2023-07-09T02:00:37;101664.75;;;22.32;100.00
65329;BME280;51941;52.210;5.158;2023-07-09T02:03:05;101676.06;;;22.34;100.00
65329;BME280;51941;52.210;5.158;2023-07-09T02:05:33;101670.94;;;22.32;100.00
65329;BME280;51941;52.210;5.158;2023-07-09T02:07:59;101673.66;;;22.32;100.00
65329;BME280;51941;52.210;5.158;2023-07-09T02:10:26;101668.56;;;22.31;100.00
65329;BME280;51941;52.210;5.158;2023-07-09T02:12:54;101665.88;;;22.31;100.00
65329;BME280;51941;52.210;5.158;2023-07-09T02:15:22;101664.25;;;22.30;100.00
65329;BME280;51941;52.210;5.158;2023-07-09T02:17:49;101658.06;;;22.29;100.00
65329;BME280;51941;52.210;5.158;2023-07-09T02:20:18;101662.13;;;22.26;100.00
65329;BME280;51941;52.210;5.158;2023-07-09T02:22:45;101671.59;;;22.24;100.00
65329;BME280;51941;52.210;5.158;2023-07-09T02:25:12;101666.00;;;22.20;100.00
65329;BME280;51941;52.210;5.158;2023-07-09T02:27:39;101666.03;;;22.15;100.00
65329;BME280;51941;52.210;5.158;2023-07-09T02:30:08;101671.50;;;22.10;100.00
65329;BME280;51941;52.210;5.158;2023-07-09T02:32:36;101670.25;;;22.03;100.00
65329;BME280;51941;52.210;5.158;2023-07-09T02:35:04;101672.16;;;21.97;100.00
65329;BME280;51941;52.210;5.158;2023-07-09T02:37:30;101670.34;;;21.93;100.00
65329;BME280;51941;52.210;5.158;2023-07-09T02:39:58;101669.56;;;21.87;100.00
65329;BME280;51941;52.210;5.158;2023-07-09T02:42:25;101671.25;;;21.83;100.00
65329;BME280;51941;52.210;5.158;2023-07-09T02:44:52;101662.44;;;21.77;100.00
65329;BME280;51941;52.210;5.158;2023-07-09T02:47:21;101662.44;;;21.72;100.00
65329;BME280;51941;52.210;5.158;2023-07-09T02:49:48;101666.22;;;21.71;100.00
65329;BME280;51941;52.210;5.158;2023-07-09T02:52:15;101662.22;;;21.69;100.00
65329;BME280;51941;52.210;5.158;2023-07-09T02:54:42;101661.69;;;21.67;100.00
65329;BME280;51941;52.210;5.158;2023-07-09T02:57:09;101662.78;;;21.66;100.00
65329;BME280;51941;52.210;5.158;2023-07-09T02:59:36;101667.63;;;21.64;100.00
65329;BME280;51941;52.210;5.158;2023-07-09T03:02:03;101663.41;;;21.58;100.00
65329;BME280;51941;52.210;5.158;2023-07-09T03:04:31;101666.63;;;21.60;100.00
65329;BME280;51941;52.210;5.158;2023-07-09T03:07:02;101662.59;;;21.57;100.00
65329;BME280;51941;52.210;5.158;2023-07-09T03:09:29;101665.56;;;21.56;100.00
65329;BME280;51941;52.210;5.158;2023-07-09T03:11:56;101669.34;;;21.55;100.00
65329;BME280;51941;52.210;5.158;2023-07-09T03:14:23;101675.00;;;21.53;100.00
65329;BME280;51941;52.210;5.158;2023-07-09T03:16:50;101673.41;;;21.52;100.00
65329;BME280;51941;52.210;5.158;2023-07-09T03:19:17;101673.41;;;21.52;100.00
65329;BME280;51941;52.210;5.158;2023-07-09T03:21:45;101671.00;;;21.50;100.00
65329;BME280;51941;52.210;5.158;2023-07-09T03:24:12;101670.50;;;21.48;100.00
65329;BME280;51941;52.210;5.158;2023-07-09T03:26:40;101670.50;;;21.48;100.00
65329;BME280;51941;52.210;5.158;2023-07-09T03:29:07;101674.81;;;21.44;100.00
65329;BME280;51941;52.210;5.158;2023-07-09T03:31:33;101667.78;;;21.48;100.00
65329;BME280;51941;52.210;5.158;2023-07-09T03:34:00;101672.38;;;21.48;100.00
65329;BME280;51941;52.210;5.158;2023-07-09T03:36:28;101668.88;;;21.47;100.00
65329;BME280;51941;52.210;5.158;2023-07-09T03:38:56;101669.69;;;21.48;100.00
65329;BME280;51941;52.210;5.158;2023-07-09T03:41:24;101672.38;;;21.48;100.00
65329;BME280;51941;52.210;5.158;2023-07-09T03:43:50;101670.50;;;21.43;100.00
65329;BME280;51941;52.210;5.158;2023-07-09T03:46:18;101676.16;;;21.47;100.00
65329;BME280;51941;52.210;5.158;2023-07-09T03:48:45;101672.09;;;21.49;100.00
65329;BME280;51941;52.210;5.158;2023-07-09T03:51:12;101679.59;;;21.52;100.00
65329;BME280;51941;52.210;5.158;2023-07-09T03:53:38;101677.22;;;21.51;100.00
65329;BME280;51941;52.210;5.158;2023-07-09T03:56:07;101681.19;;;21.53;100.00
65329;BME280;51941;52.210;5.158;2023-07-09T03:58:34;101678.28;;;21.50;100.00
65329;BME280;51941;52.210;5.158;2023-07-09T04:01:01;101687.41;;;21.54;100.00
65329;BME280;51941;52.210;5.158;2023-07-09T04:03:28;101685.84;;;21.48;100.00
65329;BME280;51941;52.210;5.158;2023-07-09T04:05:55;101688.56;;;21.43;100.00
65329;BME280;51941;52.210;5.158;2023-07-09T04:08:22;101688.63;;;21.38;100.00
65329;BME280;51941;52.210;5.158;2023-07-09T04:10:48;101693.19;;;21.37;100.00
65329;BME280;51941;52.210;5.158;2023-07-09T04:13:16;101686.19;;;21.36;100.00
65329;BME280;51941;52.210;5.158;2023-07-09T04:15:43;101699.66;;;21.36;100.00
65329;BME280;51941;52.210;5.158;2023-07-09T04:18:10;101695.91;;;21.37;100.00
65329;BME280;51941;52.210;5.158;2023-07-09T04:20:37;101697.50;;;21.38;100.00
65329;BME280;51941;52.210;5.158;2023-07-09T04:23:05;101693.94;;;21.43;100.00
65329;BME280;51941;52.210;5.158;2023-07-09T04:25:32;101701.44;;;21.51;100.00
65329;BME280;51941;52.210;5.158;2023-07-09T04:27:59;101695.13;;;21.61;100.00
65329;BME280;51941;52.210;5.158;2023-07-09T04:30:27;101703.94;;;21.71;100.00
65329;BME280;51941;52.210;5.158;2023-07-09T04:32:54;101701.25;;;21.76;100.00
65329;BME280;51941;52.210;5.158;2023-07-09T04:35:21;101697.13;;;21.84;100.00
65329;BME280;51941;52.210;5.158;2023-07-09T04:37:48;101701.88;;;21.92;100.00
65329;BME280;51941;52.210;5.158;2023-07-09T04:40:14;101700.19;;;22.01;100.00
65329;BME280;51941;52.210;5.158;2023-07-09T04:42:41;101703.84;;;22.10;100.00
65329;BME280;51941;52.210;5.158;2023-07-09T04:45:10;101703.75;;;22.20;100.00
65329;BME280;51941;52.210;5.158;2023-07-09T04:47:39;101705.53;;;22.30;100.00
65329;BME280;51941;52.210;5.158;2023-07-09T04:50:07;101697.41;;;22.54;100.00
65329;BME280;51941;52.210;5.158;2023-07-09T04:52:34;101687.72;;;22.72;100.00
65329;BME280;51941;52.210;5.158;2023-07-09T04:55:01;101681.72;;;22.93;100.00
65329;BME280;51941;52.210;5.158;2023-07-09T04:57:28;101687.94;;;23.13;100.00
65329;BME280;51941;52.210;5.158;2023-07-09T04:59:55;101692.09;;;23.24;100.00
65329;BME280;51941;52.210;5.158;2023-07-09T05:02:21;101695.75;;;23.33;100.00
65329;BME280;51941;52.210;5.158;2023-07-09T05:04:50;101690.47;;;23.42;100.00
65329;BME280;51941;52.210;5.158;2023-07-09T05:07:17;101684.66;;;23.48;100.00
65329;BME280;51941;52.210;5.158;2023-07-09T05:09:43;101683.28;;;23.64;100.00
65329;BME280;51941;52.210;5.158;2023-07-09T05:12:10;101682.34;;;23.88;100.00
65329;BME280;51941;52.210;5.158;2023-07-09T05:14:37;101688.19;;;24.08;100.00
65329;BME280;51941;52.210;5.158;2023-07-09T05:17:04;101687.47;;;24.30;100.00
65329;BME280;51941;52.210;5.158;2023-07-09T05:19:31;101686.44;;;24.54;100.00
65329;BME280;51941;52.210;5.158;2023-07-09T05:21:59;101688.22;;;24.72;100.00
65329;BME280;51941;52.210;5.158;2023-07-09T05:24:26;101687.28;;;24.90;100.00
65329;BME280;51941;52.210;5.158;2023-07-09T05:26:53;101679.34;;;25.16;100.00
65329;BME280;51941;52.210;5.158;2023-07-09T05:29:20;101679.28;;;25.52;100.00
65329;BME280;51941;52.210;5.158;2023-07-09T05:31:47;101679.63;;;25.90;98.32
65329;BME280;51941;52.210;5.158;2023-07-09T05:34:14;101686.00;;;26.33;94.39
65329;BME280;51941;52.210;5.158;2023-07-09T05:36:41;101681.59;;;26.81;90.12
65329;BME280;51941;52.210;5.158;2023-07-09T05:39:09;101685.09;;;27.24;87.30
65329;BME280;51941;52.210;5.158;2023-07-09T05:41:36;101681.03;;;27.65;83.80
65329;BME280;51941;52.210;5.158;2023-07-09T05:44:03;101686.31;;;28.08;80.59
65329;BME280;51941;52.210;5.158;2023-07-09T05:46:34;101684.75;;;28.28;78.46
65329;BME280;51941;52.210;5.158;2023-07-09T05:49:02;101690.63;;;28.38;76.12
65329;BME280;51941;52.210;5.158;2023-07-09T05:51:29;101688.72;;;28.60;74.24
65329;BME280;51941;52.210;5.158;2023-07-09T05:53:56;101696.75;;;28.77;73.34
65329;BME280;51941;52.210;5.158;2023-07-09T05:56:24;101695.72;;;28.69;73.48
65329;BME280;51941;52.210;5.158;2023-07-09T05:58:52;101701.59;;;28.50;74.06
65329;BME280;51941;52.210;5.158;2023-07-09T06:01:19;101703.44;;;28.38;75.06
65329;BME280;51941;52.210;5.158;2023-07-09T06:03:46;101706.19;;;28.59;74.52
65329;BME280;51941;52.210;5.158;2023-07-09T06:06:13;101712.06;;;28.90;72.77
65329;BME280;51941;52.210;5.158;2023-07-09T06:08:40;101711.88;;;29.28;70.76
65329;BME280;51941;52.210;5.158;2023-07-09T06:11:07;101698.50;;;29.68;67.53
65329;BME280;51941;52.210;5.158;2023-07-09T06:13:35;101708.19;;;30.02;65.57
65329;BME280;51941;52.210;5.158;2023-07-09T06:16:03;101708.88;;;30.23;64.49
65329;BME280;51941;52.210;5.158;2023-07-09T06:18:30;101712.16;;;30.41;63.13
65329;BME280;51941;52.210;5.158;2023-07-09T06:20:58;101715.19;;;30.52;61.77
65329;BME280;51941;52.210;5.158;2023-07-09T06:23:26;101724.53;;;30.75;61.38
65329;BME280;51941;52.210;5.158;2023-07-09T06:25:52;101724.00;;;30.97;59.93
65329;BME280;51941;52.210;5.158;2023-07-09T06:28:21;101729.03;;;31.11;57.99
65329;BME280;51941;52.210;5.158;2023-07-09T06:30:49;101730.09;;;31.19;56.98
65329;BME280;51941;52.210;5.158;2023-07-09T06:33:16;101733.03;;;31.26;53.57
65329;BME280;51941;52.210;5.158;2023-07-09T06:35:48;101727.88;;;31.68;53.51
65329;BME280;51941;52.210;5.158;2023-07-09T06:38:15;101727.81;;;31.96;52.61
65329;BME280;51941;52.210;5.158;2023-07-09T06:40:42;101736.91;;;32.15;51.26
65329;BME280;51941;52.210;5.158;2023-07-09T06:43:09;101737.25;;;32.30;51.04
65329;BME280;51941;52.210;5.158;2023-07-09T06:45:38;101739.81;;;32.22;50.33
65329;BME280;51941;52.210;5.158;2023-07-09T06:48:06;101735.69;;;32.48;50.25
65329;BME280;51941;52.210;5.158;2023-07-09T06:50:33;101729.91;;;32.88;50.07
65329;BME280;51941;52.210;5.158;2023-07-09T06:53:00;101738.66;;;33.13;48.47
65329;BME280;51941;52.210;5.158;2023-07-09T06:55:27;101737.00;;;33.27;47.68
65329;BME280;51941;52.210;5.158;2023-07-09T06:57:54;101738.00;;;33.39;46.70
65329;BME280;51941;52.210;5.158;2023-07-09T07:00:21;101743.38;;;33.54;46.27
65329;BME280;51941;52.210;5.158;2023-07-09T07:02:47;101744.03;;;33.70;45.73
65329;BME280;51941;52.210;5.158;2023-07-09T07:05:16;101743.59;;;33.68;46.25
65329;BME280;51941;52.210;5.158;2023-07-09T07:07:43;101747.56;;;33.48;47.19
65329;BME280;51941;52.210;5.158;2023-07-09T07:10:10;101743.75;;;33.33;46.86
65329;BME280;51941;52.210;5.158;2023-07-09T07:12:42;101740.31;;;33.17;46.98
65329;BME280;51941;52.210;5.158;2023-07-09T07:15:10;101751.38;;;32.67;49.40
65329;BME280;51941;52.210;5.158;2023-07-09T07:17:38;101749.91;;;32.53;49.33
65329;BME280;51941;52.210;5.158;2023-07-09T07:20:06;101759.53;;;32.63;50.17
65329;BME280;51941;52.210;5.158;2023-07-09T07:22:37;101761.03;;;32.60;50.55
65329;BME280;51941;52.210;5.158;2023-07-09T07:25:06;101763.56;;;32.18;51.38
65329;BME280;51941;52.210;5.158;2023-07-09T07:27:33;101764.47;;;32.07;53.06
65329;BME280;51941;52.210;5.158;2023-07-09T07:30:00;101763.31;;;32.08;54.44
65329;BME280;51941;52.210;5.158;2023-07-09T07:32:27;101766.47;;;32.10;54.14
65329;BME280;51941;52.210;5.158;2023-07-09T07:34:53;101760.06;;;31.86;54.88
65329;BME280;51941;52.210;5.158;2023-07-09T07:37:21;101763.59;;;32.03;55.03
65329;BME280;51941;52.210;5.158;2023-07-09T07:39:49;101764.56;;;32.26;53.62
65329;BME280;51941;52.210;5.158;2023-07-09T07:42:17;101761.88;;;32.45;52.54
65329;BME280;51941;52.210;5.158;2023-07-09T07:44:44;101763.97;;;32.87;50.69
65329;BME280;51941;52.210;5.158;2023-07-09T07:47:11;101771.00;;;33.04;48.44
65329;BME280;51941;52.210;5.158;2023-07-09T07:49:39;101770.78;;;33.31;46.62
65329;BME280;51941;52.210;5.158;2023-07-09T07:52:07;101774.72;;;33.53;44.91
65329;BME280;51941;52.210;5.158;2023-07-09T07:54:34;101770.13;;;33.38;45.00
65329;BME280;51941;52.210;5.158;2023-07-09T07:57:02;101767.41;;;33.61;44.85
65329;BME280;51941;52.210;5.158;2023-07-09T07:59:29;101760.19;;;33.30;45.25
65329;BME280;51941;52.210;5.158;2023-07-09T08:01:58;101756.09;;;33.05;46.46
65329;BME280;51941;52.210;5.158;2023-07-09T08:04:24;101755.91;;;32.94;45.59
65329;BME280;51941;52.210;5.158;2023-07-09T08:06:51;101759.47;;;32.44;46.27
65329;BME280;51941;52.210;5.158;2023-07-09T08:09:18;101759.56;;;32.82;45.58
65329;BME280;51941;52.210;5.158;2023-07-09T08:11:45;101757.56;;;32.98;45.61
65329;BME280;51941;52.210;5.158;2023-07-09T08:14:14;101766.03;;;33.28;45.50
65329;BME280;51941;52.210;5.158;2023-07-09T08:16:40;101770.13;;;33.38;46.47
65329;BME280;51941;52.210;5.158;2023-07-09T08:19:07;101760.91;;;33.27;47.52
65329;BME280;51941;52.210;5.158;2023-07-09T08:21:34;101764.88;;;33.29;47.40
65329;BME280;51941;52.210;5.158;2023-07-09T08:24:01;101758.78;;;33.20;46.57
65329;BME280;51941;52.210;5.158;2023-07-09T08:26:28;101751.34;;;33.21;45.84
65329;BME280;51941;52.210;5.158;2023-07-09T08:28:56;101758.94;;;33.27;45.86
65329;BME280;51941;52.210;5.158;2023-07-09T08:31:25;101751.34;;;33.21;46.49
65329;BME280;51941;52.210;5.158;2023-07-09T08:33:51;101750.28;;;33.25;46.54
65329;BME280;51941;52.210;5.158;2023-07-09T08:36:18;101747.03;;;32.81;47.23
65329;BME280;51941;52.210;5.158;2023-07-09T08:38:45;101740.53;;;33.09;46.49
65329;BME280;51941;52.210;5.158;2023-07-09T08:41:35;101754.31;;;32.93;48.16
65329;BME280;51941;52.210;5.158;2023-07-09T08:44:14;101751.84;;;32.88;46.67
65329;BME280;51941;52.210;5.158;2023-07-09T08:46:54;101756.56;;;32.72;46.20
65329;BME280;51941;52.210;5.158;2023-07-09T08:49:33;101749.72;;;32.27;45.81
65329;BME280;51941;52.210;5.158;2023-07-09T08:52:02;101752.00;;;31.78;44.62
65329;BME280;51941;52.210;5.158;2023-07-09T08:54:33;101744.91;;;31.45;42.91
65329;BME280;51941;52.210;5.158;2023-07-09T08:57:09;101742.94;;;30.90;44.66
65329;BME280;51941;52.210;5.158;2023-07-09T08:59:41;101736.59;;;30.50;45.75
65329;BME280;51941;52.210;5.158;2023-07-09T09:02:16;101737.22;;;30.31;46.80
65329;BME280;51941;52.210;5.158;2023-07-09T09:04:47;101738.47;;;30.09;47.69
65329;BME280;51941;52.210;5.158;2023-07-09T09:07:20;101730.13;;;30.05;49.71
65329;BME280;51941;52.210;5.158;2023-07-09T09:09:56;101737.97;;;29.83;51.28
65329;BME280;51941;52.210;5.158;2023-07-09T09:12:26;101734.31;;;29.79;51.93
65329;BME280;51941;52.210;5.158;2023-07-09T09:14:57;101728.47;;;29.56;54.03
65329;BME280;51941;52.210;5.158;2023-07-09T09:17:27;101735.13;;;29.46;54.77
65329;BME280;51941;52.210;5.158;2023-07-09T09:19:56;101725.88;;;29.59;54.73
65329;BME280;51941;52.210;5.158;2023-07-09T09:22:36;101735.19;;;29.58;54.92
65329;BME280;51941;52.210;5.158;2023-07-09T09:25:17;101724.03;;;29.51;56.07
65329;BME280;51941;52.210;5.158;2023-07-09T09:27:46;101730.31;;;29.64;56.52
65329;BME280;51941;52.210;5.158;2023-07-09T09:30:15;101726.38;;;29.86;56.37
65329;BME280;51941;52.210;5.158;2023-07-09T09:32:47;101708.28;;;29.93;55.21
65329;BME280;51941;52.210;5.158;2023-07-09T09:35:17;101711.91;;;29.97;54.83
65329;BME280;51941;52.210;5.158;2023-07-09T09:37:51;101704.19;;;29.99;55.50
65329;BME280;51941;52.210;5.158;2023-07-09T09:40:18;101704.84;;;29.96;55.41
65329;BME280;51941;52.210;5.158;2023-07-09T09:42:48;101708.38;;;29.97;56.56
65329;BME280;51941;52.210;5.158;2023-07-09T09:45:17;101711.00;;;30.05;56.94
65329;BME280;51941;52.210;5.158;2023-07-09T09:47:46;101718.22;;;30.10;57.12
65329;BME280;51941;52.210;5.158;2023-07-09T09:50:14;101711.25;;;30.25;56.71
65329;BME280;51941;52.210;5.158;2023-07-09T09:52:41;101716.38;;;30.38;57.05
65329;BME280;51941;52.210;5.158;2023-07-09T09:55:12;101710.00;;;30.34;57.94
65329;BME280;51941;52.210;5.158;2023-07-09T09:57:39;101730.84;;;30.39;56.51
65329;BME280;51941;52.210;5.158;2023-07-09T10:02:40;101710.13;;;30.38;54.10
65329;BME280;51941;52.210;5.158;2023-07-09T10:05:12;101712.00;;;30.50;53.12
65329;BME280;51941;52.210;5.158;2023-07-09T10:07:43;101712.38;;;30.48;52.27
65329;BME280;51941;52.210;5.158;2023-07-09T10:10:15;101714.06;;;30.53;52.30
65329;BME280;51941;52.210;5.158;2023-07-09T10:12:49;101709.75;;;30.52;51.56
65329;BME280;51941;52.210;5.158;2023-07-09T10:15:27;101712.69;;;30.59;51.47
65329;BME280;51941;52.210;5.158;2023-07-09T10:18:02;101709.84;;;30.55;51.53
65329;BME280;51941;52.210;5.158;2023-07-09T10:20:37;101709.28;;;30.50;52.35
65329;BME280;51941;52.210;5.158;2023-07-09T10:23:18;101714.88;;;30.53;52.20
65329;BME280;51941;52.210;5.158;2023-07-09T10:25:51;101724.41;;;30.59;52.47
65329;BME280;51941;52.210;5.158;2023-07-09T10:28:32;101728.41;;;30.50;52.83
65329;BME280;51941;52.210;5.158;2023-07-09T10:31:08;101727.94;;;30.60;53.36
65329;BME280;51941;52.210;5.158;2023-07-09T10:33:49;101725.56;;;30.70;53.92
65329;BME280;51941;52.210;5.158;2023-07-09T10:36:28;101727.22;;;30.87;53.96
65329;BME280;51941;52.210;5.158;2023-07-09T10:39:00;101721.94;;;30.94;52.56
65329;BME280;51941;52.210;5.158;2023-07-09T10:41:29;101721.66;;;30.84;53.44
65329;BME280;51941;52.210;5.158;2023-07-09T10:44:00;101721.13;;;30.94;53.46
65329;BME280;51941;52.210;5.158;2023-07-09T10:46:34;101731.75;;;30.95;53.48
65329;BME280;51941;52.210;5.158;2023-07-09T10:49:04;101734.59;;;30.99;54.37
65329;BME280;51941;52.210;5.158;2023-07-09T10:51:38;101730.72;;;31.00;53.99
65329;BME280;51941;52.210;5.158;2023-07-09T10:54:12;101727.47;;;30.82;54.92
65329;BME280;51941;52.210;5.158;2023-07-09T10:56:42;101714.06;;;30.53;56.21
65329;BME280;51941;52.210;5.158;2023-07-09T10:59:18;101717.72;;;30.32;57.49
65329;BME280;51941;52.210;5.158;2023-07-09T11:01:50;101711.84;;;30.18;55.73
65329;BME280;51941;52.210;5.158;2023-07-09T11:04:26;101718.88;;;29.95;54.67
65329;BME280;51941;52.210;5.158;2023-07-09T11:07:00;101717.22;;;29.57;53.62
65329;BME280;51941;52.210;5.158;2023-07-09T11:09:32;101737.81;;;29.34;54.32
65329;BME280;51941;52.210;5.158;2023-07-09T11:12:02;101747.22;;;29.04;55.56
65329;BME280;51941;52.210;5.158;2023-07-09T11:14:34;101734.94;;;28.98;55.99
65329;BME280;51941;52.210;5.158;2023-07-09T11:17:04;101741.69;;;28.91;54.63
65329;BME280;51941;52.210;5.158;2023-07-09T11:19:41;101732.44;;;28.84;52.20
65329;BME280;51941;52.210;5.158;2023-07-09T11:22:15;101715.78;;;28.85;50.27
65329;BME280;51941;52.210;5.158;2023-07-09T11:24:48;101716.63;;;28.77;48.26
65329;BME280;51941;52.210;5.158;2023-07-09T11:27:22;101717.69;;;28.85;48.29
65329;BME280;51941;52.210;5.158;2023-07-09T11:29:56;101709.78;;;28.92;48.16
65329;BME280;51941;52.210;5.158;2023-07-09T11:32:24;101710.00;;;29.08;48.22
65329;BME280;51941;52.210;5.158;2023-07-09T11:34:51;101695.84;;;29.26;47.94
65329;BME280;51941;52.210;5.158;2023-07-09T11:37:25;101720.16;;;29.52;47.83
65329;BME280;51941;52.210;5.158;2023-07-09T11:39:52;101710.63;;;29.58;47.49
65329;BME280;51941;52.210;5.158;2023-07-09T11:42:30;101711.09;;;29.60;46.59
65329;BME280;51941;52.210;5.158;2023-07-09T11:45:09;101727.88;;;29.50;47.05
65329;BME280;51941;52.210;5.158;2023-07-09T11:47:38;101722.13;;;29.52;47.88
65329;BME280;51941;52.210;5.158;2023-07-09T11:50:20;101726.69;;;29.60;47.52
65329;BME280;51941;52.210;5.158;2023-07-09T11:52:55;101724.97;;;29.67;47.59
65329;BME280;51941;52.210;5.158;2023-07-09T11:55:28;101729.31;;;29.81;47.09
65329;BME280;51941;52.210;5.158;2023-07-09T11:57:56;101734.09;;;29.84;45.77
65329;BME280;51941;52.210;5.158;2023-07-09T12:00:26;101740.81;;;29.86;44.77
65329;BME280;51941;52.210;5.158;2023-07-09T12:02:55;101744.34;;;29.87;44.57
65329;BME280;51941;52.210;5.158;2023-07-09T12:05:27;101749.78;;;29.75;44.54
65329;BME280;51941;52.210;5.158;2023-07-09T12:07:57;101750.03;;;29.94;44.93
65329;BME280;51941;52.210;5.158;2023-07-09T12:10:32;101752.88;;;29.97;45.31
65329;BME280;51941;52.210;5.158;2023-07-09T12:12:59;101753.72;;;30.10;45.08
65329;BME280;51941;52.210;5.158;2023-07-09T12:15:29;101752.81;;;30.30;45.34
65329;BME280;51941;52.210;5.158;2023-07-09T12:17:59;101746.44;;;30.26;45.15
65329;BME280;51941;52.210;5.158;2023-07-09T12:20:29;101742.00;;;30.22;45.07
65329;BME280;51941;52.210;5.158;2023-07-09T12:22:58;101755.88;;;30.17;45.90
65329;BME280;51941;52.210;5.158;2023-07-09T12:25:27;101759.25;;;30.01;45.94
65329;BME280;51941;52.210;5.158;2023-07-09T12:27:58;101757.44;;;29.93;46.77
65329;BME280;51941;52.210;5.158;2023-07-09T12:30:24;101760.16;;;29.93;47.51
65329;BME280;51941;52.210;5.158;2023-07-09T12:32:51;101761.63;;;29.91;49.69
65329;BME280;51941;52.210;5.158;2023-07-09T12:35:19;101773.09;;;29.96;51.12
65329;BME280;51941;52.210;5.158;2023-07-09T12:37:47;101781.41;;;29.88;53.60
65329;BME280;51941;52.210;5.158;2023-07-09T12:40:17;101802.91;;;29.77;53.98
65329;BME280;51941;52.210;5.158;2023-07-09T12:42:50;101804.31;;;29.62;55.74
65329;BME280;51941;52.210;5.158;2023-07-09T12:45:21;101798.75;;;29.59;54.37
65329;BME280;51941;52.210;5.158;2023-07-09T12:47:49;101785.47;;;29.70;53.26
65329;BME280;51941;52.210;5.158;2023-07-09T12:50:26;101773.22;;;29.76;53.78
65329;BME280;51941;52.210;5.158;2023-07-09T12:52:56;101772.38;;;29.63;51.78
65329;BME280;51941;52.210;5.158;2023-07-09T12:55:26;101771.84;;;29.49;51.84
65329;BME280;51941;52.210;5.158;2023-07-09T12:57:55;101781.41;;;29.22;52.66